Time;durP1;ratioP1;P1;durP2;ratioP2;P2;SDS_P1;SDS_P2;PMS_P1;PMS_P2;Temp;Humidity;BMP_temperature;BMP_pressure;BME280_temperature;BME280_humidity;BME280_pressure;Samples;Min_cycle;Max_cycle;Signal;HPM_P1;HPM_P2
2023/07/21 00:02:06;;;;;;;3.00;1.40;;;;;;;;;;4964071;28;1136864;-60
2023/07/21 00:04:35;;;;;;;3.85;1.70;;;;;;;;;;5002374;28;20711;-71
2023/07/21 00:07:04;;;;;;;6.10;1.60;;;;;;;;;;5004434;28;20135;-60
2023/07/21 00:09:32;;;;;;;4.13;1.90;;;;;;;;;;5004611;28;20045;-62
2023/07/21 00:12:00;;;;;;;4.05;1.95;;;;;;;;;;5006346;28;20054;-60
2023/07/21 00:14:29;;;;;;;5.45;1.52;;;;;;;;;;5003198;28;20534;-63
2023/07/21 00:16:58;;;;;;;3.80;1.85;;;;;;;;;;5004552;28;20088;-65
2023/07/21 00:19:27;;;;;;;2.47;1.42;;;;;;;;;;5001487;28;20104;-73
2023/07/21 00:21:55;;;;;;;2.50;1.48;;;;;;;;;;5005002;28;20045;-70
2023/07/21 00:24:24;;;;;;;4.05;1.90;;;;;;;;;;5002703;28;20061;-60
2023/07/21 00:26:54;;;;;;;4.60;1.90;;;;;;;;;;5005638;28;20525;-59
2023/07/21 00:29:23;;;;;;;4.35;1.92;;;;;;;;;;5006404;28;20112;-62
2023/07/21 00:31:51;;;;;;;2.78;2.00;;;;;;;;;;5003328;28;20049;-63
2023/07/21 00:34:24;;;;;;;5.47;1.52;;;;;;;;;;5002531;28;20053;-66
2023/07/21 00:36:55;;;;;;;4.28;1.60;;;;;;;;;;5005894;28;20513;-61
2023/07/21 00:39:24;;;;;;;3.58;1.50;;;;;;;;;;5002818;28;20057;-67
2023/07/21 00:41:52;;;;;;;2.33;1.38;;;;;;;;;;5005624;28;20124;-62
2023/07/21 00:44:21;;;;;;;1.58;1.40;;;;;;;;;;5004037;28;20120;-62
2023/07/21 00:46:49;;;;;;;3.50;1.80;;;;;;;;;;5004336;28;20073;-72
2023/07/21 00:49:17;;;;;;;3.40;1.48;;;;;;;;;;5002552;28;20080;-65
2023/07/21 00:51:49;;;;;;;2.50;1.30;;;;;;;;;;5004534;28;21466;-62
2023/07/21 00:54:18;;;;;;;2.45;1.60;;;;;;;;;;5000826;28;20121;-63
2023/07/21 00:56:47;;;;;;;4.18;1.70;;;;;;;;;;5005296;28;20558;-62
2023/07/21 00:59:17;;;;;;;3.10;1.60;;;;;;;;;;5002933;28;20046;-67
2023/07/21 01:04:16;;;;;;;6.38;2.00;;;;;;;;;;5048846;28;20041;-60
2023/07/21 01:06:45;;;;;;;3.10;1.50;;;;;;;;;;5040381;28;20053;-66
2023/07/21 01:09:16;;;;;;;2.90;1.50;;;;;;;;;;5040452;28;20114;-62
2023/07/21 01:11:45;;;;;;;2.65;1.65;;;;;;;;;;5040898;28;20072;-64
2023/07/21 01:14:14;;;;;;;2.13;1.48;;;;;;;;;;5036050;28;20127;-59
2023/07/21 01:16:43;;;;;;;5.85;2.10;;;;;;;;;;5040684;28;20140;-59
2023/07/21 01:19:14;;;;;;;5.97;1.63;;;;;;;;;;5042008;28;20441;-63
2023/07/21 01:21:44;;;;;;;5.60;1.67;;;;;;;;;;5039468;28;20041;-62
2023/07/21 01:24:17;;;;;;;4.97;1.80;;;;;;;;;;5035862;28;20072;-58
2023/07/21 01:26:48;;;;;;;5.75;2.72;;;;;;;;;;5020525;28;20052;-60
2023/07/21 01:29:18;;;;;;;9.07;1.58;;;;;;;;;;5022085;28;20053;-66
2023/07/21 01:31:48;;;;;;;5.75;1.90;;;;;;;;;;5020273;28;20057;-63
2023/07/21 01:34:16;;;;;;;3.05;1.70;;;;;;;;;;5023478;28;20072;-58
2023/07/21 01:40:18;;;;;;;4.00;1.67;;;;;;;;;;5039938;28;20032;-59
2023/07/21 01:42:48;;;;;;;3.05;1.58;;;;;;;;;;5042446;28;20450;-59
2023/07/21 01:45:16;;;;;;;3.72;1.75;;;;;;;;;;5041836;28;20134;-61
2023/07/21 01:47:47;;;;;;;4.65;1.83;;;;;;;;;;5049775;28;20074;-59
2023/07/21 01:50:17;;;;;;;4.72;1.50;;;;;;;;;;5045305;28;20935;-60
2023/07/21 01:52:46;;;;;;;3.88;1.75;;;;;;;;;;5047123;28;20110;-61
2023/07/21 01:55:18;;;;;;;3.67;1.67;;;;;;;;;;5044177;28;20064;-60
2023/07/21 01:57:49;;;;;;;4.38;1.85;;;;;;;;;;5045781;28;20249;-58
2023/07/21 02:00:18;;;;;;;4.78;1.83;;;;;;;;;;5044239;28;20482;-60
2023/07/21 02:02:48;;;;;;;4.47;1.50;;;;;;;;;;5047080;28;20076;-61
2023/07/21 02:05:19;;;;;;;4.47;1.63;;;;;;;;;;5045780;28;20068;-61
2023/07/21 02:07:48;;;;;;;2.88;1.65;;;;;;;;;;5047521;28;20567;-58
2023/07/21 02:10:16;;;;;;;3.67;1.67;;;;;;;;;;5045072;28;20486;-62
2023/07/21 02:12:45;;;;;;;5.00;2.25;;;;;;;;;;5044143;28;20103;-70
2023/07/21 02:15:14;;;;;;;3.15;1.38;;;;;;;;;;5044447;28;20057;-63
2023/07/21 02:17:43;;;;;;;6.15;1.95;;;;;;;;;;5045588;28;20134;-58
2023/07/21 02:20:14;;;;;;;3.33;1.70;;;;;;;;;;5044045;28;20049;-59
2023/07/21 02:22:43;;;;;;;4.25;1.85;;;;;;;;;;5041459;28;20044;-58
2023/07/21 02:25:12;;;;;;;2.65;1.70;;;;;;;;;;5045494;28;20144;-59
2023/07/21 02:27:41;;;;;;;3.58;1.85;;;;;;;;;;5047198;28;20056;-59
2023/07/21 02:30:10;;;;;;;3.10;1.88;;;;;;;;;;5046369;28;20777;-59
2023/07/21 02:32:40;;;;;;;6.75;2.72;;;;;;;;;;5046727;28;20406;-59
2023/07/21 02:35:08;;;;;;;3.85;1.55;;;;;;;;;;5045008;28;20041;-58
2023/07/21 02:37:37;;;;;;;3.70;1.90;;;;;;;;;;5047556;28;20464;-62
2023/07/21 02:40:06;;;;;;;4.47;1.80;;;;;;;;;;5045792;28;20110;-64
2023/07/21 02:42:35;;;;;;;3.13;1.55;;;;;;;;;;5046868;28;21159;-60
2023/07/21 02:45:04;;;;;;;3.55;1.88;;;;;;;;;;5044688;28;20413;-58
2023/07/21 02:47:33;;;;;;;2.88;1.55;;;;;;;;;;5046904;28;20052;-57
2023/07/21 02:50:03;;;;;;;5.68;2.42;;;;;;;;;;5043467;28;20049;-63
2023/07/21 02:52:31;;;;;;;6.40;1.85;;;;;;;;;;5046209;28;20049;-59
2023/07/21 02:55:00;;;;;;;4.82;2.08;;;;;;;;;;5043726;28;20794;-59
2023/07/21 02:57:28;;;;;;;5.45;1.90;;;;;;;;;;5046525;28;20053;-59
2023/07/21 02:59:56;;;;;;;6.40;2.17;;;;;;;;;;5047362;28;20478;-58
2023/07/21 03:02:25;;;;;;;3.78;1.80;;;;;;;;;;5047648;28;20474;-57
2023/07/21 03:04:53;;;;;;;3.13;1.65;;;;;;;;;;5044633;28;20137;-59
2023/07/21 03:07:23;;;;;;;5.05;2.22;;;;;;;;;;5045561;28;20061;-58
2023/07/21 03:09:54;;;;;;;2.45;1.60;;;;;;;;;;5043267;28;20077;-58
2023/07/21 03:12:22;;;;;;;6.75;1.88;;;;;;;;;;5045446;28;20544;-57
2023/07/21 03:14:51;;;;;;;4.18;1.77;;;;;;;;;;5044641;28;20079;-58
2023/07/21 03:17:19;;;;;;;4.88;2.38;;;;;;;;;;5044380;28;20141;-57
2023/07/21 03:19:48;;;;;;;4.30;1.63;;;;;;;;;;5042315;28;20056;-58
2023/07/21 03:22:16;;;;;;;7.18;2.25;;;;;;;;;;5045668;28;20406;-58
2023/07/21 03:24:46;;;;;;;3.78;1.95;;;;;;;;;;5039537;28;20061;-69
2023/07/21 03:27:15;;;;;;;6.88;2.10;;;;;;;;;;5046039;28;20402;-60
2023/07/21 03:29:43;;;;;;;7.30;2.17;;;;;;;;;;5043123;28;20485;-61
2023/07/21 03:32:14;;;;;;;6.20;2.15;;;;;;;;;;5042391;28;20052;-58
2023/07/21 03:34:42;;;;;;;5.80;2.22;;;;;;;;;;5044879;28;20138;-58
2023/07/21 03:37:10;;;;;;;5.55;2.00;;;;;;;;;;5040252;28;20159;-66
2023/07/21 03:39:39;;;;;;;6.93;2.25;;;;;;;;;;5045996;28;20122;-65
2023/07/21 03:42:09;;;;;;;2.88;1.58;;;;;;;;;;5045165;28;20073;-58
2023/07/21 03:44:37;;;;;;;5.35;2.78;;;;;;;;;;5044363;28;20048;-62
2023/07/21 03:47:05;;;;;;;7.85;2.53;;;;;;;;;;5045635;28;20068;-62
2023/07/21 03:49:35;;;;;;;6.93;2.03;;;;;;;;;;5045024;28;20056;-65
2023/07/21 03:52:03;;;;;;;3.20;1.92;;;;;;;;;;5042567;28;20064;-60
2023/07/21 03:54:32;;;;;;;6.07;2.42;;;;;;;;;;5044953;28;20056;-61
2023/07/21 03:57:00;;;;;;;3.78;2.20;;;;;;;;;;5041037;28;20461;-66
2023/07/21 03:59:30;;;;;;;3.72;2.05;;;;;;;;;;5045530;28;20041;-61
2023/07/21 04:01:58;;;;;;;7.28;2.10;;;;;;;;;;5041872;28;20144;-60
2023/07/21 04:04:26;;;;;;;3.97;1.98;;;;;;;;;;5042183;28;20062;-58
2023/07/21 04:06:55;;;;;;;8.40;2.38;;;;;;;;;;5040869;28;20045;-60
2023/07/21 04:09:23;;;;;;;3.33;1.95;;;;;;;;;;5042850;28;20084;-60
2023/07/21 04:11:52;;;;;;;5.00;1.73;;;;;;;;;;5039608;28;20091;-66
2023/07/21 04:14:20;;;;;;;6.90;2.08;;;;;;;;;;5046602;28;20045;-67
2023/07/21 04:16:50;;;;;;;5.68;2.08;;;;;;;;;;5041099;28;20424;-58
2023/07/21 04:19:18;;;;;;;4.50;2.30;;;;;;;;;;5044662;28;20126;-59
2023/07/21 04:21:47;;;;;;;4.03;2.03;;;;;;;;;;5042115;28;20122;-62
2023/07/21 04:24:15;;;;;;;6.05;2.08;;;;;;;;;;5043698;28;20155;-60
2023/07/21 04:26:44;;;;;;;6.57;2.13;;;;;;;;;;5041477;28;20053;-58
2023/07/21 04:29:12;;;;;;;5.88;1.83;;;;;;;;;;5045221;28;20066;-58
2023/07/21 04:32:02;;;;;;;5.00;2.25;;;;;;;;;;5044517;28;20076;-60
2023/07/21 04:34:30;;;;;;;3.88;2.20;;;;;;;;;;5043033;28;20567;-68
2023/07/21 04:36:59;;;;;;;4.70;2.40;;;;;;;;;;5044758;28;20056;-58
2023/07/21 04:39:28;;;;;;;5.07;2.05;;;;;;;;;;5040996;28;20053;-63
2023/07/21 04:41:56;;;;;;;3.70;2.25;;;;;;;;;;5037821;28;20045;-61
2023/07/21 04:44:25;;;;;;;3.58;2.10;;;;;;;;;;5043359;28;20417;-60
2023/07/21 04:46:53;;;;;;;5.88;2.35;;;;;;;;;;5039716;28;20681;-59
2023/07/21 04:49:23;;;;;;;3.25;2.08;;;;;;;;;;5038451;28;20072;-58
2023/07/21 04:51:52;;;;;;;7.75;2.40;;;;;;;;;;5037429;28;20037;-62
2023/07/21 04:54:20;;;;;;;3.60;2.05;;;;;;;;;;5040650;28;20517;-59
2023/07/21 04:56:48;;;;;;;5.55;2.45;;;;;;;;;;5035703;28;20983;-68
2023/07/21 04:59:18;;;;;;;5.63;2.30;;;;;;;;;;5043205;28;20575;-65
2023/07/21 05:01:47;;;;;;;3.65;1.98;;;;;;;;;;5038457;28;20056;-62
2023/07/21 05:04:16;;;;;;;3.28;1.98;;;;;;;;;;5037739;28;20467;-58
2023/07/21 05:06:47;;;;;;;2.78;1.80;;;;;;;;;;5037986;28;20041;-69
2023/07/21 05:09:16;;;;;;;4.13;2.20;;;;;;;;;;5041171;28;20057;-62
2023/07/21 05:11:44;;;;;;;4.30;2.47;;;;;;;;;;5040197;28;20081;-63
2023/07/21 05:14:14;;;;;;;5.45;1.95;;;;;;;;;;5034451;28;20056;-58
2023/07/21 05:16:42;;;;;;;4.68;2.33;;;;;;;;;;5039519;28;20049;-60
2023/07/21 05:19:11;;;;;;;7.05;2.70;;;;;;;;;;5040586;28;20095;-63
2023/07/21 05:21:39;;;;;;;4.35;2.20;;;;;;;;;;5040845;28;20579;-59
2023/07/21 05:24:09;;;;;;;5.18;2.55;;;;;;;;;;5037324;28;20055;-68
2023/07/21 05:26:38;;;;;;;3.67;2.25;;;;;;;;;;5035271;28;20148;-59
2023/07/21 05:29:08;;;;;;;5.55;2.40;;;;;;;;;;5038888;28;20583;-64
2023/07/21 05:31:38;;;;;;;4.82;2.38;;;;;;;;;;5033586;28;20118;-58
2023/07/21 05:34:07;;;;;;;6.15;2.42;;;;;;;;;;5032517;28;21093;-63
2023/07/21 05:36:35;;;;;;;5.32;2.28;;;;;;;;;;5034014;28;20180;-59
2023/07/21 05:39:05;;;;;;;7.22;2.33;;;;;;;;;;5040903;28;20049;-58
2023/07/21 05:41:35;;;;;;;4.15;2.20;;;;;;;;;;5038722;28;20115;-59
2023/07/21 05:44:03;;;;;;;6.30;2.65;;;;;;;;;;5040280;28;20041;-58
2023/07/21 05:46:31;;;;;;;5.88;2.75;;;;;;;;;;5041222;28;20498;-66
2023/07/21 05:49:00;;;;;;;5.15;2.20;;;;;;;;;;5039470;28;20057;-58
2023/07/21 05:51:28;;;;;;;3.55;2.10;;;;;;;;;;5041207;28;20536;-59
2023/07/21 05:53:57;;;;;;;9.63;2.70;;;;;;;;;;5037972;28;20102;-58
2023/07/21 05:56:25;;;;;;;5.50;2.42;;;;;;;;;;5037977;28;20045;-66
2023/07/21 05:58:55;;;;;;;4.97;2.22;;;;;;;;;;5038520;28;20041;-61
2023/07/21 06:01:24;;;;;;;5.95;2.63;;;;;;;;;;5035969;28;20041;-59
2023/07/21 06:03:52;;;;;;;8.27;2.75;;;;;;;;;;5038685;28;20187;-58
2023/07/21 06:06:23;;;;;;;2.95;1.88;;;;;;;;;;5043085;28;20049;-60
2023/07/21 06:08:53;;;;;;;3.22;1.95;;;;;;;;;;5040028;28;20049;-60
2023/07/21 06:11:22;;;;;;;8.15;2.60;;;;;;;;;;5040961;28;20110;-72
2023/07/21 06:13:50;;;;;;;7.00;2.75;;;;;;;;;;5042377;28;20173;-59
2023/07/21 06:16:22;;;;;;;5.60;2.47;;;;;;;;;;5039722;28;20103;-64
2023/07/21 06:18:52;;;;;;;5.93;2.50;;;;;;;;;;5037643;28;20063;-59
2023/07/21 06:21:21;;;;;;;4.38;2.30;;;;;;;;;;5040391;28;20037;-59
2023/07/21 06:23:49;;;;;;;5.70;2.60;;;;;;;;;;5037338;28;20110;-59
2023/07/21 06:26:17;;;;;;;3.92;2.30;;;;;;;;;;5034074;28;20151;-62
2023/07/21 06:28:46;;;;;;;4.38;2.50;;;;;;;;;;5042241;28;20450;-63
2023/07/21 06:31:15;;;;;;;4.35;2.30;;;;;;;;;;5040054;28;20040;-66
2023/07/21 06:33:45;;;;;;;6.60;2.67;;;;;;;;;;5044859;28;20505;-59
2023/07/21 06:36:13;;;;;;;4.47;2.13;;;;;;;;;;5042357;28;20190;-64
2023/07/21 06:38:42;;;;;;;4.38;2.20;;;;;;;;;;5046008;28;20049;-62
2023/07/21 06:41:10;;;;;;;7.82;2.70;;;;;;;;;;5043892;28;20358;-62
2023/07/21 06:43:39;;;;;;;12.43;3.00;;;;;;;;;;5046169;28;20045;-60
2023/07/21 06:46:07;;;;;;;9.23;2.30;;;;;;;;;;5042533;28;20385;-68
2023/07/21 06:48:36;;;;;;;4.40;2.80;;;;;;;;;;5047019;28;20270;-67
2023/07/21 06:51:05;;;;;;;5.82;2.38;;;;;;;;;;5043370;28;20472;-60
2023/07/21 06:53:34;;;;;;;9.82;2.80;;;;;;;;;;5045404;28;20045;-59
2023/07/21 06:56:02;;;;;;;4.88;2.67;;;;;;;;;;5042967;28;20072;-59
2023/07/21 06:58:30;;;;;;;7.20;3.28;;;;;;;;;;5047319;28;20458;-63
2023/07/21 07:01:00;;;;;;;4.22;2.55;;;;;;;;;;5045110;28;20443;-62
2023/07/21 07:03:29;;;;;;;6.55;3.25;;;;;;;;;;5046030;28;20148;-61
2023/07/21 07:05:59;;;;;;;7.15;2.80;;;;;;;;;;5042432;28;20045;-59
2023/07/21 07:08:29;;;;;;;6.30;3.03;;;;;;;;;;5042891;28;20037;-61
2023/07/21 07:10:57;;;;;;;6.68;2.60;;;;;;;;;;5042978;28;20060;-59
2023/07/21 07:13:26;;;;;;;5.95;3.05;;;;;;;;;;5043424;28;20072;-65
2023/07/21 07:15:55;;;;;;;4.90;2.97;;;;;;;;;;5040808;28;20044;-64
2023/07/21 07:18:24;;;;;;;5.43;2.83;;;;;;;;;;5043468;28;20049;-59
2023/07/21 07:20:53;;;;;;;4.28;2.63;;;;;;;;;;5043833;28;20045;-59
2023/07/21 07:23:21;;;;;;;4.00;2.42;;;;;;;;;;5044435;28;20426;-61
2023/07/21 07:25:52;;;;;;;4.13;2.65;;;;;;;;;;5044433;28;20141;-60
2023/07/21 07:28:21;;;;;;;5.53;2.83;;;;;;;;;;5045162;28;20513;-60
2023/07/21 07:30:49;;;;;;;5.78;2.80;;;;;;;;;;5041362;28;20072;-59
2023/07/21 07:33:18;;;;;;;4.97;2.47;;;;;;;;;;5041772;28;20053;-62
2023/07/21 07:35:49;;;;;;;6.00;2.55;;;;;;;;;;5044472;28;21731;-64
2023/07/21 07:38:23;;;;;;;8.75;3.28;;;;;;;;;;5044519;28;20053;-67
2023/07/21 07:40:52;;;;;;;4.28;2.78;;;;;;;;;;5044423;28;20053;-61
2023/07/21 07:43:21;;;;;;;3.85;2.55;;;;;;;;;;5041456;28;20049;-63
2023/07/21 07:45:49;;;;;;;4.47;2.40;;;;;;;;;;5041999;28;20049;-60
2023/07/21 07:48:18;;;;;;;4.72;2.90;;;;;;;;;;5043911;28;20429;-59
2023/07/21 07:50:46;;;;;;;4.50;2.90;;;;;;;;;;5044156;28;20076;-60
2023/07/21 07:53:14;;;;;;;4.15;2.40;;;;;;;;;;5040827;28;20055;-60
2023/07/21 07:55:44;;;;;;;6.60;2.58;;;;;;;;;;5044204;28;20114;-58
2023/07/21 07:58:14;;;;;;;4.93;2.55;;;;;;;;;;5043379;28;20041;-64
2023/07/21 08:00:43;;;;;;;5.50;3.03;;;;;;;;;;5040223;28;20122;-59
2023/07/21 08:03:12;;;;;;;10.30;3.20;;;;;;;;;;5039000;28;20080;-60
2023/07/21 08:05:41;;;;;;;4.53;2.30;;;;;;;;;;5041536;28;20561;-61
2023/07/21 08:08:10;;;;;;;4.15;2.60;;;;;;;;;;5040527;28;20602;-60
2023/07/21 08:10:41;;;;;;;5.53;2.83;;;;;;;;;;5042727;28;20052;-59
2023/07/21 08:13:10;;;;;;;4.15;2.47;;;;;;;;;;5044148;28;20056;-60
2023/07/21 08:15:42;;;;;;;6.50;2.25;;;;;;;;;;5043569;28;20493;-62
2023/07/21 08:18:12;;;;;;;7.07;2.42;;;;;;;;;;5044215;28;20098;-61
2023/07/21 08:20:41;;;;;;;5.10;2.42;;;;;;;;;;5042693;28;20127;-60
2023/07/21 08:23:09;;;;;;;5.90;2.55;;;;;;;;;;5042930;28;21417;-59
2023/07/21 08:25:56;;;;;;;7.93;2.67;;;;;;;;;;5037904;28;20168;-65
2023/07/21 08:28:25;;;;;;;4.05;2.17;;;;;;;;;;5044133;28;20049;-59
2023/07/21 08:30:55;;;;;;;4.88;1.98;;;;;;;;;;5041963;28;20052;-59
2023/07/21 08:33:27;;;;;;;4.20;2.15;;;;;;;;;;5042436;28;20136;-67
2023/07/21 08:35:56;;;;;;;5.20;2.05;;;;;;;;;;5042824;28;20049;-59
2023/07/21 08:38:24;;;;;;;6.40;2.28;;;;;;;;;;5041483;28;20115;-68
2023/07/21 08:40:56;;;;;;;5.60;2.50;;;;;;;;;;5041735;28;20131;-66
2023/07/21 08:43:25;;;;;;;4.35;2.42;;;;;;;;;;5043930;28;20053;-59
2023/07/21 08:45:54;;;;;;;7.15;2.28;;;;;;;;;;5041740;28;20072;-60
2023/07/21 08:48:24;;;;;;;4.85;2.00;;;;;;;;;;5043720;28;20045;-59
2023/07/21 08:50:54;;;;;;;4.43;2.20;;;;;;;;;;5042053;28;20053;-59
2023/07/21 08:53:24;;;;;;;5.40;2.38;;;;;;;;;;5042257;28;20156;-62
2023/07/21 08:55:54;;;;;;;5.95;2.08;;;;;;;;;;5041166;28;20497;-60
2023/07/21 08:58:23;;;;;;;2.78;1.83;;;;;;;;;;5042097;28;20493;-59
2023/07/21 09:00:55;;;;;;;4.45;2.38;;;;;;;;;;5041247;28;20067;-60
2023/07/21 09:03:25;;;;;;;5.47;2.38;;;;;;;;;;5036832;28;20123;-60
2023/07/21 09:05:56;;;;;;;5.22;2.17;;;;;;;;;;5040140;28;20127;-60
2023/07/21 09:08:27;;;;;;;7.15;2.30;;;;;;;;;;5042078;28;20110;-60
2023/07/21 09:10:59;;;;;;;5.53;2.15;;;;;;;;;;5044013;28;20052;-59
2023/07/21 09:13:28;;;;;;;4.78;2.35;;;;;;;;;;5040546;28;20048;-61
2023/07/21 09:15:57;;;;;;;5.55;2.45;;;;;;;;;;5040070;28;20127;-67
2023/07/21 09:18:28;;;;;;;3.85;2.20;;;;;;;;;;5037122;28;20182;-62
2023/07/21 09:20:56;;;;;;;5.30;2.30;;;;;;;;;;5039142;28;20041;-60
2023/07/21 09:23:29;;;;;;;3.90;2.53;;;;;;;;;;5040220;28;20052;-63
2023/07/21 09:25:59;;;;;;;4.07;2.40;;;;;;;;;;5043032;28;20520;-61
2023/07/21 09:28:39;;;;;;;3.47;2.33;;;;;;;;;;5040147;28;20160;-61
2023/07/21 09:31:08;;;;;;;5.40;2.65;;;;;;;;;;5039393;28;20587;-60
2023/07/21 09:33:42;;;;;;;3.33;2.08;;;;;;;;;;5033407;28;20049;-62
2023/07/21 09:36:12;;;;;;;4.70;2.15;;;;;;;;;;5027019;28;20049;-62
2023/07/21 09:38:40;;;;;;;5.18;2.40;;;;;;;;;;5035737;28;20500;-63
2023/07/21 09:41:10;;;;;;;9.15;2.90;;;;;;;;;;5040302;28;20049;-66
2023/07/21 09:43:39;;;;;;;4.47;2.15;;;;;;;;;;5042432;28;20118;-66
2023/07/21 09:46:08;;;;;;;6.22;2.90;;;;;;;;;;5043715;28;20513;-64
2023/07/21 09:48:39;;;;;;;5.15;2.65;;;;;;;;;;5045421;28;20498;-59
2023/07/21 09:51:10;;;;;;;8.13;2.35;;;;;;;;;;5040289;28;20084;-60
2023/07/21 09:53:39;;;;;;;3.60;2.13;;;;;;;;;;5042474;28;20132;-61
2023/07/21 09:56:09;;;;;;;4.32;1.80;;;;;;;;;;5039534;28;20045;-62
2023/07/21 09:58:39;;;;;;;4.93;1.90;;;;;;;;;;5038532;28;20494;-61
2023/07/21 10:01:09;;;;;;;4.78;2.22;;;;;;;;;;5042206;28;20506;-60
2023/07/21 10:03:39;;;;;;;2.83;1.92;;;;;;;;;;5041742;28;20055;-68
2023/07/21 10:06:09;;;;;;;3.75;2.17;;;;;;;;;;5041167;28;20479;-60
2023/07/21 10:08:38;;;;;;;5.05;2.00;;;;;;;;;;5045102;28;20079;-61
2023/07/21 10:11:08;;;;;;;3.70;1.92;;;;;;;;;;5047731;28;20106;-60
2023/07/21 10:13:41;;;;;;;4.68;2.20;;;;;;;;;;5042781;28;20394;-67
2023/07/21 10:16:09;;;;;;;4.10;2.10;;;;;;;;;;5041943;28;20122;-61
2023/07/21 10:18:38;;;;;;;3.60;2.55;;;;;;;;;;5044205;28;20132;-61
2023/07/21 10:21:06;;;;;;;4.07;1.80;;;;;;;;;;5046822;28;20053;-64
2023/07/21 10:23:40;;;;;;;2.67;1.98;;;;;;;;;;5043892;28;20049;-65
2023/07/21 10:26:09;;;;;;;4.73;2.30;;;;;;;;;;5042452;28;20049;-59
2023/07/21 10:28:38;;;;;;;3.13;2.00;;;;;;;;;;5044564;28;20041;-67
2023/07/21 10:31:26;;;;;;;2.38;1.83;;;;;;;;;;5046004;28;20127;-63
2023/07/21 10:34:02;;;;;;;3.03;1.70;;;;;;;;;;5040587;28;20070;-61
2023/07/21 10:36:40;;;;;;;2.90;1.65;;;;;;;;;;5044613;28;20053;-63
2023/07/21 10:39:10;;;;;;;2.63;1.60;;;;;;;;;;5045871;28;20101;-60
2023/07/21 10:41:39;;;;;;;3.85;2.25;;;;;;;;;;5043244;28;20045;-68
2023/07/21 10:44:08;;;;;;;4.82;2.22;;;;;;;;;;5045420;28;20050;-60
2023/07/21 10:46:37;;;;;;;2.35;1.85;;;;;;;;;;5046238;28;20122;-59
2023/07/21 10:49:06;;;;;;;4.65;2.15;;;;;;;;;;5041919;28;20046;-60
2023/07/21 10:51:34;;;;;;;3.28;1.92;;;;;;;;;;5044976;28;20498;-60
2023/07/21 10:54:02;;;;;;;3.33;1.90;;;;;;;;;;5042641;28;20041;-66
2023/07/21 10:56:34;;;;;;;4.70;1.92;;;;;;;;;;5047263;28;20053;-61
2023/07/21 10:59:03;;;;;;;3.15;2.10;;;;;;;;;;5043897;28;20106;-60
2023/07/21 11:01:32;;;;;;;3.25;1.80;;;;;;;;;;5044478;28;20049;-60
2023/07/21 11:04:01;;;;;;;3.63;1.58;;;;;;;;;;5043058;28;20455;-65
2023/07/21 11:06:29;;;;;;;3.97;2.05;;;;;;;;;;5046236;28;20060;-59
2023/07/21 11:08:58;;;;;;;4.47;1.90;;;;;;;;;;5045937;28;20049;-58
2023/07/21 11:11:26;;;;;;;3.20;1.67;;;;;;;;;;5043377;28;20750;-65
2023/07/21 11:13:56;;;;;;;2.95;1.80;;;;;;;;;;5041286;28;20122;-61
2023/07/21 11:16:25;;;;;;;3.38;2.00;;;;;;;;;;5043639;28;20474;-60
2023/07/21 11:18:54;;;;;;;2.80;1.55;;;;;;;;;;5042950;28;20084;-61
2023/07/21 11:21:24;;;;;;;3.22;2.08;;;;;;;;;;5042879;28;20578;-60
2023/07/21 11:23:57;;;;;;;3.65;2.10;;;;;;;;;;5043347;28;20461;-61
2023/07/21 11:26:25;;;;;;;3.45;1.52;;;;;;;;;;5041997;28;20142;-58
2023/07/21 11:28:54;;;;;;;2.80;1.58;;;;;;;;;;5044648;28;20041;-60
2023/07/21 11:31:25;;;;;;;3.58;1.80;;;;;;;;;;5044746;28;20053;-67
2023/07/21 11:33:54;;;;;;;3.38;1.98;;;;;;;;;;5037198;28;20045;-63
2023/07/21 11:36:23;;;;;;;4.13;2.00;;;;;;;;;;5045054;28;20510;-66
2023/07/21 11:38:58;;;;;;;2.45;2.00;;;;;;;;;;5043384;28;20052;-60
2023/07/21 11:41:36;;;;;;;4.93;2.03;;;;;;;;;;5038269;28;20136;-59
2023/07/21 11:44:06;;;;;;;3.72;2.08;;;;;;;;;;5044205;28;20049;-60
2023/07/21 11:46:37;;;;;;;3.67;2.08;;;;;;;;;;5045222;28;20052;-60
2023/07/21 11:49:10;;;;;;;4.68;1.98;;;;;;;;;;5045219;28;20041;-61
2023/07/21 11:51:43;;;;;;;2.97;1.85;;;;;;;;;;5042677;28;20589;-61
2023/07/21 11:54:19;;;;;;;4.47;2.10;;;;;;;;;;5032490;28;20504;-60
2023/07/21 11:56:47;;;;;;;2.70;2.00;;;;;;;;;;5043053;28;20468;-61
2023/07/21 11:59:16;;;;;;;3.42;2.17;;;;;;;;;;5043037;28;20783;-68
2023/07/21 12:01:46;;;;;;;3.55;2.00;;;;;;;;;;5040273;28;20049;-61
2023/07/21 12:04:15;;;;;;;2.40;1.90;;;;;;;;;;5042104;28;20068;-60
2023/07/21 12:06:43;;;;;;;2.45;1.88;;;;;;;;;;5031921;28;20460;-61
2023/07/21 12:09:12;;;;;;;2.50;1.77;;;;;;;;;;5035771;28;20126;-60
2023/07/21 12:11:41;;;;;;;2.35;1.92;;;;;;;;;;5043252;28;20045;-60
2023/07/21 12:14:09;;;;;;;4.20;2.03;;;;;;;;;;5045927;28;20057;-60
2023/07/21 12:16:38;;;;;;;3.00;2.00;;;;;;;;;;5042822;28;20076;-64
2023/07/21 12:19:09;;;;;;;3.85;2.13;;;;;;;;;;5039545;28;20458;-60
2023/07/21 12:21:37;;;;;;;4.50;2.33;;;;;;;;;;5038315;28;20052;-60
2023/07/21 12:24:14;;;;;;;3.17;2.00;;;;;;;;;;5036190;28;20056;-60
2023/07/21 12:26:42;;;;;;;4.45;1.75;;;;;;;;;;5043445;28;20045;-64
2023/07/21 12:29:11;;;;;;;6.38;2.30;;;;;;;;;;5043304;28;20533;-61
2023/07/21 12:31:42;;;;;;;2.75;1.88;;;;;;;;;;5039864;28;20157;-61
2023/07/21 12:34:12;;;;;;;6.55;2.42;;;;;;;;;;5042041;28;20087;-62
2023/07/21 12:36:41;;;;;;;5.68;2.25;;;;;;;;;;5028567;28;20049;-61
2023/07/21 12:39:10;;;;;;;3.53;2.00;;;;;;;;;;5041828;28;20078;-59
2023/07/21 12:41:38;;;;;;;5.55;2.50;;;;;;;;;;5035753;28;20095;-64
2023/07/21 12:44:09;;;;;;;4.53;2.60;;;;;;;;;;5040425;28;20107;-63
2023/07/21 12:46:37;;;;;;;6.75;1.90;;;;;;;;;;5043623;28;20048;-63
2023/07/21 12:49:06;;;;;;;6.82;2.03;;;;;;;;;;5043995;28;20045;-60
2023/07/21 12:51:36;;;;;;;3.47;2.28;;;;;;;;;;5041173;28;21118;-60
2023/07/21 12:54:04;;;;;;;6.57;2.08;;;;;;;;;;5043164;28;20517;-59
2023/07/21 12:56:33;;;;;;;9.30;2.42;;;;;;;;;;5044195;28;20427;-61
2023/07/21 12:59:01;;;;;;;5.72;2.58;;;;;;;;;;5040533;28;20049;-60
2023/07/21 13:01:30;;;;;;;5.82;2.55;;;;;;;;;;5037511;28;20304;-61
2023/07/21 13:03:58;;;;;;;5.35;2.45;;;;;;;;;;5042432;28;20057;-66
2023/07/21 13:06:27;;;;;;;3.60;2.60;;;;;;;;;;5040192;28;20079;-59
2023/07/21 13:08:57;;;;;;;4.63;2.22;;;;;;;;;;5038667;28;20206;-60
2023/07/21 13:11:26;;;;;;;4.65;2.35;;;;;;;;;;5037263;28;20040;-59
2023/07/21 13:13:54;;;;;;;4.35;2.03;;;;;;;;;;5041008;28;20138;-61
2023/07/21 13:16:23;;;;;;;8.57;2.63;;;;;;;;;;5043079;28;20462;-60
2023/07/21 13:18:52;;;;;;;5.15;2.33;;;;;;;;;;5037200;28;20064;-61
2023/07/21 13:21:21;;;;;;;4.68;2.50;;;;;;;;;;5044372;28;20522;-60
2023/07/21 13:23:50;;;;;;;5.53;2.50;;;;;;;;;;5043357;28;20037;-61
2023/07/21 13:26:19;;;;;;;6.50;2.42;;;;;;;;;;5038104;28;20045;-65
2023/07/21 13:28:48;;;;;;;7.40;2.05;;;;;;;;;;5038256;28;20049;-60
2023/07/21 13:31:16;;;;;;;3.63;1.85;;;;;;;;;;5037966;28;20502;-59
2023/07/21 13:33:45;;;;;;;4.45;1.90;;;;;;;;;;5040220;28;20076;-59
2023/07/21 13:36:13;;;;;;;3.83;2.20;;;;;;;;;;5038465;28;20126;-61
2023/07/21 13:38:42;;;;;;;3.35;2.15;;;;;;;;;;5040105;28;20067;-59
2023/07/21 13:41:10;;;;;;;3.75;2.05;;;;;;;;;;5042783;28;20052;-60
2023/07/21 13:43:40;;;;;;;3.75;2.40;;;;;;;;;;5045301;28;20565;-60
2023/07/21 13:46:09;;;;;;;5.22;1.95;;;;;;;;;;5044966;28;20045;-60
2023/07/21 13:48:38;;;;;;;4.13;1.80;;;;;;;;;;5044281;28;20072;-61
2023/07/21 13:51:07;;;;;;;3.15;1.65;;;;;;;;;;5040615;28;20053;-61
2023/07/21 13:53:35;;;;;;;2.67;1.60;;;;;;;;;;5042958;28;20095;-64
2023/07/21 13:56:04;;;;;;;3.33;1.63;;;;;;;;;;5041231;28;20055;-61
2023/07/21 13:58:33;;;;;;;2.58;1.90;;;;;;;;;;5045402;28;20483;-63
2023/07/21 14:01:03;;;;;;;3.83;1.40;;;;;;;;;;5045433;28;20044;-59
2023/07/21 14:03:31;;;;;;;3.35;1.80;;;;;;;;;;5045824;28;20479;-64
2023/07/21 14:06:00;;;;;;;2.38;1.58;;;;;;;;;;5028693;28;20053;-59
2023/07/21 14:08:31;;;;;;;3.65;1.80;;;;;;;;;;5023950;28;20049;-59
2023/07/21 14:11:00;;;;;;;2.80;1.85;;;;;;;;;;5017231;28;20053;-59
2023/07/21 14:13:28;;;;;;;3.35;1.80;;;;;;;;;;5021222;28;20045;-60
2023/07/21 14:15:57;;;;;;;2.80;1.58;;;;;;;;;;5036681;28;20064;-63
2023/07/21 14:18:26;;;;;;;4.38;1.85;;;;;;;;;;5043991;28;20053;-61
2023/07/21 14:20:55;;;;;;;4.68;1.85;;;;;;;;;;5044272;28;20087;-62
2023/07/21 14:23:25;;;;;;;4.00;1.75;;;;;;;;;;5042577;28;20053;-60
2023/07/21 14:25:53;;;;;;;2.67;1.77;;;;;;;;;;5042080;28;20060;-59
2023/07/21 14:28:22;;;;;;;7.03;1.70;;;;;;;;;;5039058;28;20099;-63
2023/07/21 14:30:50;;;;;;;3.75;1.70;;;;;;;;;;5038156;28;21434;-62
2023/07/21 14:33:19;;;;;;;4.80;1.77;;;;;;;;;;5039707;28;20454;-59
2023/07/21 14:35:48;;;;;;;4.55;1.67;;;;;;;;;;5042931;28;20517;-59
2023/07/21 14:38:19;;;;;;;2.00;1.40;;;;;;;;;;5043487;28;20556;-63
2023/07/21 14:40:48;;;;;;;3.95;1.80;;;;;;;;;;5042708;28;20501;-61
2023/07/21 14:43:16;;;;;;;3.88;1.77;;;;;;;;;;5044752;28;20053;-60
2023/07/21 14:45:44;;;;;;;2.55;1.63;;;;;;;;;;5041571;28;20052;-61
2023/07/21 14:48:13;;;;;;;2.75;1.65;;;;;;;;;;5043510;28;20044;-59
2023/07/21 14:50:42;;;;;;;4.13;1.88;;;;;;;;;;5041423;28;20052;-60
2023/07/21 14:53:12;;;;;;;3.65;1.42;;;;;;;;;;5043604;28;20444;-61
2023/07/21 14:55:40;;;;;;;5.03;1.50;;;;;;;;;;5040569;28;20680;-59
2023/07/21 14:58:09;;;;;;;2.30;1.40;;;;;;;;;;5038202;28;20475;-60
2023/07/21 15:00:37;;;;;;;5.97;1.77;;;;;;;;;;5040525;28;20191;-61
2023/07/21 15:03:06;;;;;;;3.88;1.88;;;;;;;;;;5041918;28;20063;-61